Overview Statistics Trail Chart Weather Telemetry Raw packets
 

This is the latest recevied weather packets stored in our database for station/object SV2RCS-13. If no packets are shown the sender has not sent any weather packets the latest 10 day(s).

<< 15 16 17 18 19 20 21 >>
Time Temp. Humidity Pressure Rain* Wind** Luminosity Snow
1788154540 28.33° C 37% 1014.1 hPa - - - -
1788153938 29.44° C 34% 1013.9 hPa - - - -
1788153339 28.33° C 38% 1014.2 hPa - - - -
1788152738 27.22° C 43% 1014.6 hPa - - - -
1788152138 26.11° C 47% 1014.7 hPa - - - -
1788151538 24.44° C 50% 1015.1 hPa - - - -
1788150938 23.33° C 53% 1015.4 hPa - - - -
1788150338 22.78° C 54% 1015.7 hPa - - - -
1788149739 22.22° C 54% 1015.7 hPa - - - -
1788149138 22.22° C 54% 1015.6 hPa - - - -
1788148538 22.22° C 53% 1015.5 hPa - - - -
1788147953 22.22° C 52% 1015.5 hPa - - - -
1788147339 22.22° C 52% 1015.5 hPa - - - -
1788146738 22.78° C 51% 1015.4 hPa - - - -
1788146138 22.78° C 51% 1015.3 hPa - - - -
1788145538 22.78° C 52% 1015.3 hPa - - - -
1788144938 22.78° C 52% 1015.3 hPa - - - -
1788144338 23.33° C 52% 1015.1 hPa - - - -
1788143738 22.78° C 52% 1015.2 hPa - - - -
1788143138 23.33° C 53% 1015.1 hPa - - - -
1788142539 23.33° C 52% 1015.1 hPa - - - -
1788141938 23.33° C 52% 1015.1 hPa - - - -
1788141338 23.33° C 53% 1015.3 hPa - - - -
1788140738 23.33° C 53% 1015.2 hPa - - - -
1788140138 23.33° C 53% 1015.2 hPa - - - -

* Rain since midnight (hover to see other rain measurements)
** Current wind speed in m/s (hover to see current wind gust speed)